Dumas, AR (71639)

2:06 PM CDT on September 02, 2015 (GMT -0500)
McGehee-Wolfe Dr | | Change Station
CLOSE
Current Station
Personal Weather Station
Location: McGehee, AR
Elevation: 171 ft
Nearby Weather Stations

Elev 171 ft 33.64 °N, 91.40 °W | Updated 1 minute ago

Clear
Clear
89.8 °F
Feels Like 102 °F
N
3.7
Wind Variable Wind from East

Today
High -- | Low -- °F
--% Chance of Precip.
Yesterday
High -- | Low -- °F
Precip. -- in
6:40 AM 7:30 PM
Waning Gibbous, 78% visible
Pressure 30.04 in
Visibility 10.0 miles
Clouds Few 12000 ft
Heat Index 102 °F
Dew Point 76 °F
Humidity 64%
Rainfall 0.02 in
Snow Depth Not available.
UV 9 out of 12
Pollen 9.80 out of 12
Air Quality Not available.
Flu Activity Not available.
METAR KLLQ 021853Z AUTO VRB06KT 10SM FEW120 33/22 A3005 RMK AO2 LTG DSNT SW AND NW SLP171 T03280222
Pressure 30.04 in
Visibility 10.0 miles
Clouds Few 12000 ft
Heat Index 102 °F
Dew Point 76 °F
Humidity 64%
Rainfall 0.02 in
Snow Depth Not available.
UV 9 out of 12
Pollen 9.80 out of 12
Air Quality Not available.
Flu Activity Not available.
METAR KLLQ 021853Z AUTO VRB06KT 10SM FEW120 33/22 A3005 RMK AO2 LTG DSNT SW AND NW SLP171 T03280222

10-Day Weather Forecast

×

Almanac

Astronomy

Sep. 02, 2015 Rise Set
Actual Time
Civil Twilight
Nautical Twilight
Astronomical Twilight
Moon
Length of Visible Light
Length of Day
Tomorrow will be .
, % of the Moon is Illuminated

Today's Extremes

State Highs State Lows

Community

WunderPhotos

Upload Photos

1,851,799 photos uploaded!

WunderBlogs® & News

Nearby

Air Quality

  Air Quality AQ Index Pollutant
Not available.

Snow Depth

Station Depth Elevation

Earthquake Activity

City Distance Mag. Time & Date
Minimum magnitude displayed is 2.5.

Coastal Water Temperatures

Place Temperature

Stations

Nearby Weather Stations

Station Location Temp. Windchill Dew Point Humidity Wind Precip. Elev Updated Type